Time;durP1;ratioP1;P1;durP2;ratioP2;P2;SDS_P1;SDS_P2;PMS_P1;PMS_P2;Temp;Humidity;BMP_temperature;BMP_pressure;BME280_temperature;BME280_humidity;BME280_pressure;Samples;Min_cycle;Max_cycle;Signal;HPM_P1;HPM_P2
2023/07/22 00:01:03;;;;;;;1.70;1.40;;;22.30;99.90;;;;;;4184893;28;20051;-57
2023/07/22 00:03:23;;;;;;;2.60;1.05;;;22.30;99.90;;;;;;4183698;28;20083;-56
2023/07/22 00:05:44;;;;;;;2.22;1.15;;;22.30;99.90;;;;;;4182399;28;20052;-56
2023/07/22 00:08:04;;;;;;;2.10;1.95;;;22.20;99.90;;;;;;4182795;28;20048;-56
2023/07/22 00:10:24;;;;;;;1.73;1.00;;;22.20;99.90;;;;;;4182806;28;20367;-56
2023/07/22 00:12:44;;;;;;;4.28;1.50;;;22.10;99.90;;;;;;4182247;28;20052;-57
2023/07/22 00:15:06;;;;;;;2.90;1.85;;;22.00;99.90;;;;;;4162930;28;20061;-57
2023/07/22 00:17:26;;;;;;;2.33;1.75;;;21.80;99.90;;;;;;4178294;28;20110;-56
2023/07/22 00:19:47;;;;;;;2.97;1.58;;;21.80;99.90;;;;;;4183004;28;20044;-56
2023/07/22 00:22:07;;;;;;;4.13;1.10;;;21.80;99.90;;;;;;4185104;28;20048;-57
2023/07/22 00:24:28;;;;;;;3.58;1.20;;;21.80;99.90;;;;;;4184330;28;20087;-57
2023/07/22 00:26:49;;;;;;;1.98;1.20;;;21.80;99.90;;;;;;4184342;28;20067;-56
2023/07/22 00:29:09;;;;;;;2.08;1.27;;;21.90;99.90;;;;;;4183720;28;20047;-57
2023/07/22 00:31:30;;;;;;;4.82;1.40;;;21.70;99.90;;;;;;4183928;28;20308;-56
2023/07/22 00:33:50;;;;;;;4.80;1.13;;;21.80;99.90;;;;;;4184742;28;20063;-58
2023/07/22 00:36:10;;;;;;;2.85;1.65;;;21.90;99.90;;;;;;4184786;28;20079;-57
2023/07/22 00:38:31;;;;;;;3.47;1.10;;;21.50;99.90;;;;;;4172263;28;20119;-56
2023/07/22 00:40:51;;;;;;;4.28;1.42;;;21.30;99.90;;;;;;4185402;28;20383;-56
2023/07/22 00:43:11;;;;;;;1.60;1.30;;;21.30;99.90;;;;;;4184213;28;20117;-56
2023/07/22 00:45:32;;;;;;;2.17;1.83;;;21.30;99.90;;;;;;4180497;28;20229;-56
2023/07/22 00:47:53;;;;;;;2.45;1.10;;;21.30;99.90;;;;;;4182110;28;20095;-56
2023/07/22 00:50:13;;;;;;;3.97;1.70;;;21.50;99.90;;;;;;4182028;28;20044;-58
2023/07/22 00:52:34;;;;;;;3.92;2.05;;;21.40;99.90;;;;;;4181701;28;20375;-56
2023/07/22 00:54:55;;;;;;;2.92;1.40;;;21.50;99.90;;;;;;4181625;28;20090;-57
2023/07/22 00:57:16;;;;;;;1.45;1.35;;;21.40;99.90;;;;;;4181120;28;20052;-56
2023/07/22 00:59:36;;;;;;;4.07;2.50;;;21.10;99.90;;;;;;4182123;28;20076;-57
2023/07/22 01:01:56;;;;;;;5.40;2.75;;;20.80;99.90;;;;;;4185852;28;20075;-56
2023/07/22 01:04:20;;;;;;;4.43;2.03;;;20.60;99.90;;;;;;4183875;28;20052;-56
2023/07/22 01:06:40;;;;;;;5.25;1.90;;;20.50;99.90;;;;;;4184254;28;20055;-56
2023/07/22 01:09:00;;;;;;;9.32;3.08;;;20.50;99.90;;;;;;4183350;28;20063;-57
2023/07/22 01:11:20;;;;;;;3.45;1.85;;;20.30;99.90;;;;;;4182350;28;20363;-57
2023/07/22 01:13:40;;;;;;;7.45;2.03;;;20.10;99.90;;;;;;4181660;28;20044;-57
2023/07/22 01:16:01;;;;;;;2.42;2.13;;;20.10;99.90;;;;;;4180807;28;20052;-56
2023/07/22 01:18:21;;;;;;;7.57;2.13;;;20.10;99.90;;;;;;4178753;28;20055;-56
2023/07/22 01:20:42;;;;;;;6.55;2.60;;;20.10;99.90;;;;;;4179656;28;20068;-56
2023/07/22 01:23:03;;;;;;;3.10;2.83;;;20.30;99.90;;;;;;4180856;28;20052;-56
2023/07/22 01:25:23;;;;;;;3.53;2.97;;;20.50;99.90;;;;;;4183271;28;20104;-56
2023/07/22 01:27:46;;;;;;;2.67;1.85;;;20.50;99.90;;;;;;4182796;28;20091;-57
2023/07/22 01:30:09;;;;;;;4.72;1.80;;;20.50;99.90;;;;;;4184053;28;20047;-56
2023/07/22 01:32:29;;;;;;;;;;;20.50;99.90;;;;;;4185107;28;20052;-57
2023/07/22 01:34:50;;;;;;;3.35;1.40;;;20.50;99.90;;;;;;4182492;28;20158;-57
2023/07/22 01:37:10;;;;;;;1.77;1.52;;;20.30;99.90;;;;;;4184810;28;20056;-57
2023/07/22 01:39:30;;;;;;;3.72;1.67;;;20.20;99.90;;;;;;4183951;28;20399;-57
2023/07/22 01:41:53;;;;;;;2.35;1.23;;;20.40;99.90;;;;;;4185744;28;20075;-57
2023/07/22 01:44:13;;;;;;;;;;;20.20;99.90;;;;;;4185560;28;20055;-57
2023/07/22 01:46:37;;;;;;;5.20;1.75;;;20.20;99.90;;;;;;4185006;28;19923;-56
2023/07/22 01:48:57;;;;;;;6.50;1.50;;;20.20;99.90;;;;;;4180994;28;20043;-57
2023/07/22 01:51:17;;;;;;;3.00;1.95;;;20.10;99.90;;;;;;4181392;28;20362;-56
2023/07/22 01:53:37;;;;;;;3.22;1.48;;;20.10;99.90;;;;;;4180110;28;20095;-56
2023/07/22 01:55:57;;;;;;;2.05;1.95;;;20.10;99.90;;;;;;4166626;28;20079;-56
2023/07/22 01:58:20;;;;;;;3.38;1.63;;;20.00;99.90;;;;;;4166412;28;20402;-56
2023/07/22 02:00:40;;;;;;;;;;;20.10;99.90;;;;;;4177538;28;20368;-56
2023/07/22 02:03:00;;;;;;;2.88;1.83;;;20.00;99.90;;;;;;4181871;28;19924;-56
2023/07/22 02:05:21;;;;;;;2.55;2.15;;;20.00;99.90;;;;;;4182335;28;20052;-57
2023/07/22 02:07:41;;;;;;;3.50;2.22;;;20.00;99.90;;;;;;4184236;28;20055;-57
2023/07/22 02:10:01;;;;;;;2.67;2.47;;;19.90;99.90;;;;;;4183450;28;20094;-56
2023/07/22 02:12:21;;;;;;;2.33;2.22;;;19.70;99.90;;;;;;4182994;28;20123;-57
2023/07/22 02:14:42;;;;;;;5.35;1.70;;;19.70;99.90;;;;;;4183154;28;20090;-56
2023/07/22 02:17:02;;;;;;;3.80;1.63;;;19.50;99.90;;;;;;4181855;28;20082;-56
2023/07/22 02:19:22;;;;;;;4.28;1.83;;;19.40;99.90;;;;;;4182119;28;20149;-56
2023/07/22 02:21:42;;;;;;;3.42;1.85;;;19.40;99.90;;;;;;4181689;28;20041;-56
2023/07/22 02:24:05;;;;;;;2.17;1.83;;;19.40;99.90;;;;;;4180159;28;20072;-56
2023/07/22 02:26:26;;;;;;;4.88;2.25;;;19.60;99.90;;;;;;4179119;28;20044;-56
2023/07/22 02:28:48;;;;;;;1.98;1.77;;;19.60;99.90;;;;;;4183065;28;20367;-56
2023/07/22 02:31:08;;;;;;;2.35;1.55;;;19.30;99.90;;;;;;4182319;28;20056;-56
2023/07/22 02:33:28;;;;;;;2.85;2.00;;;19.30;99.90;;;;;;4181752;28;20047;-56
2023/07/22 02:35:49;;;;;;;2.90;2.35;;;19.20;99.90;;;;;;4183147;28;20060;-56
2023/07/22 02:38:09;;;;;;;2.80;2.58;;;19.20;99.90;;;;;;4183331;28;20056;-57
2023/07/22 02:40:30;;;;;;;6.63;2.20;;;18.90;99.90;;;;;;4187358;28;20071;-56
2023/07/22 02:42:50;;;;;;;4.50;2.08;;;18.80;99.90;;;;;;4185280;28;20063;-56
2023/07/22 02:45:10;;;;;;;5.03;2.05;;;18.90;99.90;;;;;;4185912;28;20086;-56
2023/07/22 02:47:33;;;;;;;4.57;2.78;;;19.20;99.90;;;;;;4186077;28;20047;-56
2023/07/22 02:49:53;;;;;;;4.53;2.30;;;19.40;99.90;;;;;;4186458;28;20043;-56
2023/07/22 02:52:16;;;;;;;2.25;2.05;;;19.30;99.90;;;;;;4183518;28;20104;-56
2023/07/22 02:54:40;;;;;;;3.10;1.80;;;19.30;99.90;;;;;;4182978;28;20371;-56
2023/07/22 02:57:00;;;;;;;3.92;1.75;;;19.20;99.90;;;;;;4184065;28;20052;-56
2023/07/22 02:59:20;;;;;;;4.18;1.65;;;19.10;99.90;;;;;;4183892;28;20053;-56
2023/07/22 03:01:41;;;;;;;5.38;2.15;;;19.10;99.90;;;;;;4183078;28;20112;-56
2023/07/22 03:04:01;;;;;;;2.97;2.10;;;18.90;99.90;;;;;;4181068;28;20068;-57
2023/07/22 03:06:21;;;;;;;2.72;2.53;;;18.80;99.90;;;;;;4182380;28;20394;-56
2023/07/22 03:08:41;;;;;;;2.33;2.13;;;18.80;99.90;;;;;;4186216;28;20048;-56
2023/07/22 03:11:03;;;;;;;4.60;1.80;;;18.50;99.90;;;;;;4185069;28;20048;-56
2023/07/22 03:13:23;;;;;;;5.50;2.10;;;18.50;99.90;;;;;;4185242;28;20140;-56
2023/07/22 03:15:44;;;;;;;3.40;2.03;;;18.50;99.90;;;;;;4184383;28;20451;-56
2023/07/22 03:18:06;;;;;;;9.02;1.95;;;18.40;99.90;;;;;;4185620;28;20092;-56
2023/07/22 03:20:26;;;;;;;3.92;2.05;;;18.40;99.90;;;;;;4185721;28;20048;-56
2023/07/22 03:22:46;;;;;;;5.50;1.92;;;18.20;99.90;;;;;;4185389;28;20103;-56
2023/07/22 03:25:10;;;;;;;2.38;2.28;;;18.30;99.90;;;;;;4186457;28;20371;-56
2023/07/22 03:27:31;;;;;;;2.38;2.10;;;18.40;99.90;;;;;;4186561;28;20055;-56
2023/07/22 03:29:51;;;;;;;2.63;2.42;;;18.50;99.90;;;;;;4187242;28;20363;-56
2023/07/22 03:32:12;;;;;;;3.00;2.72;;;18.50;99.90;;;;;;4182668;28;20232;-56
2023/07/22 03:34:32;;;;;;;3.85;2.00;;;18.60;99.90;;;;;;4183155;28;20052;-56
2023/07/22 03:36:52;;;;;;;3.15;2.08;;;18.70;99.90;;;;;;4182678;28;20068;-56
2023/07/22 03:39:13;;;;;;;2.25;2.15;;;18.50;99.90;;;;;;4182690;28;20247;-56
2023/07/22 03:41:33;;;;;;;3.53;3.22;;;18.50;99.90;;;;;;4183345;28;20084;-56
2023/07/22 03:43:53;;;;;;;2.17;1.98;;;18.40;99.90;;;;;;4183222;28;20045;-56
2023/07/22 03:46:13;;;;;;;2.42;2.33;;;18.50;99.90;;;;;;4183607;28;20095;-56
2023/07/22 03:48:34;;;;;;;2.78;2.05;;;18.50;99.90;;;;;;4184217;28;20284;-56
2023/07/22 03:50:54;;;;;;;4.60;2.22;;;18.60;99.90;;;;;;4183722;28;20059;-57
2023/07/22 03:53:32;;;;;;;1.85;1.75;;;18.70;99.90;;;;;;4176932;28;20084;-56
2023/07/22 03:55:52;;;;;;;6.95;1.55;;;18.70;99.90;;;;;;4183187;28;20092;-57
2023/07/22 03:58:12;;;;;;;6.07;2.90;;;18.50;99.90;;;;;;4182852;28;20051;-56
2023/07/22 04:00:33;;;;;;;3.00;2.00;;;18.20;99.90;;;;;;4183065;28;20063;-56
2023/07/22 04:02:53;;;;;;;6.32;2.63;;;18.20;99.90;;;;;;4183728;28;20240;-56
2023/07/22 04:05:13;;;;;;;3.75;2.35;;;18.20;99.90;;;;;;4182690;28;20076;-56
2023/07/22 04:07:34;;;;;;;2.72;2.53;;;18.20;99.90;;;;;;4177485;28;20048;-56
2023/07/22 04:09:54;;;;;;;2.63;1.92;;;18.20;99.90;;;;;;4182300;28;20370;-56
2023/07/22 04:12:14;;;;;;;2.70;1.70;;;18.20;99.90;;;;;;4182995;28;20107;-56
2023/07/22 04:14:34;;;;;;;4.65;1.73;;;17.90;99.90;;;;;;4184190;28;20371;-56
2023/07/22 04:16:55;;;;;;;2.60;2.22;;;17.80;99.90;;;;;;4184995;28;20044;-56
2023/07/22 04:19:16;;;;;;;4.38;1.58;;;17.90;99.90;;;;;;4184105;28;20071;-56
2023/07/22 04:21:37;;;;;;;3.75;1.52;;;17.90;99.90;;;;;;4184355;28;20094;-57
2023/07/22 04:23:57;;;;;;;1.80;1.70;;;18.00;99.90;;;;;;4183884;28;20410;-56
2023/07/22 04:26:18;;;;;;;1.85;1.75;;;17.80;99.90;;;;;;4184196;28;20391;-56
2023/07/22 04:28:39;;;;;;;6.57;1.95;;;17.90;99.90;;;;;;4185184;28;20454;-56
2023/07/22 04:31:00;;;;;;;5.18;2.67;;;17.80;99.90;;;;;;4186247;28;20283;-56
2023/07/22 04:33:20;;;;;;;4.28;2.15;;;17.70;99.90;;;;;;4186412;28;20227;-56
2023/07/22 04:35:41;;;;;;;3.40;2.75;;;17.90;99.90;;;;;;4186353;28;20094;-56
2023/07/22 04:38:02;;;;;;;3.40;2.50;;;17.80;99.90;;;;;;4181496;28;20095;-56
2023/07/22 04:40:24;;;;;;;2.72;2.63;;;17.90;99.90;;;;;;4181317;28;20079;-56
2023/07/22 04:42:46;;;;;;;4.57;2.00;;;18.00;99.90;;;;;;4178206;28;20044;-56
2023/07/22 04:45:07;;;;;;;2.90;2.63;;;18.10;99.90;;;;;;4175720;28;20047;-56
2023/07/22 04:47:28;;;;;;;5.10;2.65;;;18.10;99.90;;;;;;4183462;28;20087;-57
2023/07/22 04:49:48;;;;;;;3.13;2.28;;;18.00;99.90;;;;;;4182035;28;20375;-56
2023/07/22 04:52:09;;;;;;;2.33;2.13;;;17.90;99.90;;;;;;4182095;28;20108;-56
2023/07/22 04:54:29;;;;;;;2.28;1.77;;;17.90;99.90;;;;;;4187528;28;20305;-56
2023/07/22 04:56:54;;;;;;;4.45;2.47;;;17.90;99.90;;;;;;4184077;28;20225;-56
2023/07/22 04:59:15;;;;;;;2.97;2.42;;;17.70;99.90;;;;;;4184955;28;20386;-57
2023/07/22 05:01:36;;;;;;;2.30;2.10;;;17.70;99.90;;;;;;4181813;28;20040;-56
2023/07/22 05:03:57;;;;;;;4.40;2.40;;;17.80;99.90;;;;;;4180881;28;20048;-56
2023/07/22 05:06:17;;;;;;;2.53;2.42;;;17.90;99.90;;;;;;4182984;28;20047;-56
2023/07/22 05:08:38;;;;;;;8.80;2.38;;;18.00;99.90;;;;;;4181444;28;20534;-57
2023/07/22 05:10:59;;;;;;;3.38;2.92;;;17.90;99.90;;;;;;4180446;28;20236;-57
2023/07/22 05:13:20;;;;;;;2.90;2.03;;;18.00;99.90;;;;;;4183229;28;20048;-56
2023/07/22 05:15:40;;;;;;;5.05;2.30;;;18.00;99.90;;;;;;4182637;28;20074;-56
2023/07/22 05:18:00;;;;;;;2.25;2.03;;;18.10;99.90;;;;;;4184053;28;20048;-56
2023/07/22 05:20:20;;;;;;;1.92;1.75;;;18.10;99.90;;;;;;4184639;28;20040;-56
2023/07/22 05:22:41;;;;;;;3.25;2.35;;;18.20;99.90;;;;;;4183043;28;20094;-56
2023/07/22 05:25:02;;;;;;;3.13;2.20;;;18.20;99.90;;;;;;4182885;28;20044;-56
2023/07/22 05:27:22;;;;;;;3.13;2.95;;;18.30;99.90;;;;;;4182892;28;20052;-56
2023/07/22 05:29:42;;;;;;;5.95;2.10;;;18.40;99.90;;;;;;4186148;28;20083;-56
2023/07/22 05:32:02;;;;;;;4.35;1.77;;;18.40;99.90;;;;;;4184159;28;20059;-56
2023/07/22 05:34:23;;;;;;;1.40;1.30;;;18.40;99.90;;;;;;4184952;28;20083;-56
2023/07/22 05:36:42;;;;;;;3.40;2.00;;;18.50;99.90;;;;;;4171488;28;20098;-56
2023/07/22 05:39:03;;;;;;;3.03;1.92;;;18.60;99.90;;;;;;4184872;28;20079;-56
2023/07/22 05:41:23;;;;;;;2.45;2.25;;;18.70;99.90;;;;;;4182460;28;20043;-56
2023/07/22 05:43:44;;;;;;;4.20;2.28;;;18.80;99.90;;;;;;4180695;28;20052;-56
2023/07/22 05:46:04;;;;;;;6.80;3.47;;;18.80;99.90;;;;;;4177810;28;20044;-56
2023/07/22 05:48:24;;;;;;;3.22;2.60;;;18.80;99.90;;;;;;4176521;28;20304;-56
2023/07/22 05:50:45;;;;;;;2.67;2.40;;;18.80;99.90;;;;;;4175487;28;20064;-56
2023/07/22 05:53:05;;;;;;;2.88;2.63;;;18.90;99.90;;;;;;4184753;28;20063;-57
2023/07/22 05:55:26;;;;;;;4.10;2.05;;;19.00;99.90;;;;;;4181242;28;20040;-57
2023/07/22 05:57:46;;;;;;;3.38;1.92;;;19.10;99.90;;;;;;4180963;28;20071;-56
2023/07/22 06:00:08;;;;;;;3.00;1.50;;;19.20;99.90;;;;;;4183049;28;20118;-57
2023/07/22 06:02:29;;;;;;;2.78;2.50;;;19.30;99.90;;;;;;4186069;28;20113;-57
2023/07/22 06:04:49;;;;;;;5.25;1.92;;;19.30;99.90;;;;;;4185025;28;20056;-56
2023/07/22 06:07:09;;;;;;;3.83;2.08;;;19.70;99.90;;;;;;4182774;28;20049;-56
2023/07/22 06:09:30;;;;;;;5.85;2.05;;;20.10;99.90;;;;;;4179744;28;20312;-56
2023/07/22 06:11:50;;;;;;;8.18;3.05;;;20.40;99.90;;;;;;4181473;28;20108;-56
2023/07/22 06:14:12;;;;;;;3.92;1.67;;;20.70;99.90;;;;;;4180552;28;20233;-56
2023/07/22 06:16:32;;;;;;;2.45;1.63;;;20.90;99.90;;;;;;4182143;28;20060;-56
2023/07/22 06:18:53;;;;;;;4.05;1.98;;;21.30;99.90;;;;;;4182915;28;20044;-55
2023/07/22 06:21:15;;;;;;;3.15;1.58;;;21.60;99.90;;;;;;4184310;28;20394;-55
2023/07/22 06:23:35;;;;;;;1.83;1.35;;;21.90;99.90;;;;;;4185052;28;20060;-56
2023/07/22 06:25:55;;;;;;;4.53;1.67;;;22.10;99.90;;;;;;4187005;28;20075;-56
2023/07/22 06:28:15;;;;;;;4.72;1.45;;;22.40;99.90;;;;;;4185414;28;20075;-56
2023/07/22 06:30:35;;;;;;;1.70;1.27;;;22.60;99.90;;;;;;4184648;28;20244;-56
2023/07/22 06:32:56;;;;;;;2.65;1.75;;;22.80;99.90;;;;;;4183852;28;20074;-56
2023/07/22 06:35:16;;;;;;;2.45;1.63;;;23.10;99.90;;;;;;4185281;28;20067;-56
2023/07/22 06:37:37;;;;;;;1.67;1.30;;;23.50;99.90;;;;;;4185059;28;20051;-56
2023/07/22 06:39:57;;;;;;;2.05;1.17;;;23.70;99.90;;;;;;4186423;28;20084;-56
2023/07/22 06:42:17;;;;;;;1.42;1.20;;;23.80;99.90;;;;;;4187952;28;20060;-56
2023/07/22 06:44:37;;;;;;;4.47;1.10;;;23.90;99.90;;;;;;4188089;28;20248;-56
2023/07/22 06:46:57;;;;;;;2.97;1.00;;;24.30;99.90;;;;;;4182705;28;20439;-56
2023/07/22 06:49:18;;;;;;;7.78;1.40;;;24.60;99.90;;;;;;4181593;28;20574;-56
2023/07/22 06:51:38;;;;;;;1.73;1.30;;;24.60;99.90;;;;;;4182648;28;20289;-56
2023/07/22 06:53:58;;;;;;;1.30;1.10;;;24.60;99.90;;;;;;4181072;28;20384;-56
2023/07/22 06:56:19;;;;;;;2.15;1.20;;;24.90;99.90;;;;;;4184317;28;20294;-56
2023/07/22 06:58:39;;;;;;;1.95;0.90;;;25.00;99.90;;;;;;4180168;28;20056;-56
2023/07/22 07:00:59;;;;;;;1.20;1.10;;;25.20;99.90;;;;;;4183279;28;20048;-56
2023/07/22 07:03:21;;;;;;;2.13;1.00;;;25.70;99.90;;;;;;4185747;28;20116;-56
2023/07/22 07:05:41;;;;;;;3.20;1.00;;;26.10;99.90;;;;;;4184286;28;20386;-56
2023/07/22 07:08:02;;;;;;;5.15;1.10;;;26.50;99.90;;;;;;4184078;28;20044;-56
2023/07/22 07:10:22;;;;;;;7.93;1.10;;;26.50;99.90;;;;;;4184650;28;20371;-55
2023/07/22 07:12:42;;;;;;;2.88;0.90;;;26.70;99.30;;;;;;4182707;28;20087;-55
2023/07/22 07:15:03;;;;;;;4.93;1.00;;;26.70;98.90;;;;;;4183745;28;20048;-56
2023/07/22 07:17:23;;;;;;;6.05;1.20;;;26.50;98.90;;;;;;4183535;28;20084;-56
2023/07/22 07:19:43;;;;;;;5.35;1.10;;;26.80;99.70;;;;;;4184212;28;20076;-56
2023/07/22 07:22:04;;;;;;;2.67;0.90;;;27.40;99.40;;;;;;4181915;28;20052;-56
2023/07/22 07:24:24;;;;;;;1.77;0.90;;;28.00;98.90;;;;;;4183622;28;20443;-56
2023/07/22 07:26:44;;;;;;;5.68;1.63;;;28.00;98.10;;;;;;4182461;28;20068;-56
2023/07/22 07:29:04;;;;;;;2.83;1.88;;;28.20;97.50;;;;;;4185208;28;20148;-56
2023/07/22 07:31:25;;;;;;;1.60;0.90;;;28.10;97.40;;;;;;4184483;28;20040;-56
2023/07/22 07:33:45;;;;;;;2.20;0.93;;;28.00;96.90;;;;;;4185008;28;20055;-56
2023/07/22 07:36:05;;;;;;;3.53;1.05;;;28.30;96.90;;;;;;4183164;28;20036;-56
2023/07/22 07:38:26;;;;;;;2.92;1.48;;;28.70;96.40;;;;;;4184545;28;20091;-56
2023/07/22 07:40:46;;;;;;;1.42;0.90;;;28.90;95.60;;;;;;4184052;28;20112;-56
2023/07/22 07:43:06;;;;;;;3.75;1.35;;;29.00;95.70;;;;;;4185901;28;20150;-56
2023/07/22 07:45:26;;;;;;;1.90;1.02;;;29.00;96.00;;;;;;4185926;28;20068;-56
2023/07/22 07:47:46;;;;;;;3.33;1.50;;;29.00;96.10;;;;;;4184890;28;20051;-57
2023/07/22 07:50:07;;;;;;;4.22;0.90;;;29.30;96.00;;;;;;4187195;28;20067;-56
2023/07/22 07:52:27;;;;;;;3.58;0.80;;;29.30;95.70;;;;;;4182611;28;20052;-56
2023/07/22 07:54:48;;;;;;;2.05;1.23;;;29.90;95.90;;;;;;4183219;28;20051;-57
2023/07/22 07:57:08;;;;;;;3.45;1.13;;;29.90;95.40;;;;;;4181396;28;20125;-56
2023/07/22 07:59:28;;;;;;;2.03;1.35;;;29.70;94.80;;;;;;4180542;28;20044;-56
2023/07/22 08:01:48;;;;;;;4.68;1.45;;;29.90;95.50;;;;;;4180207;28;20099;-56
2023/07/22 08:04:09;;;;;;;2.35;1.00;;;30.20;94.90;;;;;;4183993;28;20060;-58
2023/07/22 08:06:29;;;;;;;1.98;0.70;;;29.90;94.70;;;;;;4183740;28;20075;-59
2023/07/22 08:08:49;;;;;;;2.00;0.73;;;30.00;95.00;;;;;;4183776;28;20052;-60
2023/07/22 08:11:13;;;;;;;2.15;0.95;;;30.00;96.00;;;;;;4183477;28;20363;-59
2023/07/22 08:13:33;;;;;;;4.40;1.70;;;30.30;94.90;;;;;;4183786;28;20043;-59
2023/07/22 08:15:54;;;;;;;3.00;1.20;;;30.40;94.60;;;;;;4183447;28;20048;-59
2023/07/22 08:18:15;;;;;;;3.80;0.90;;;29.90;94.80;;;;;;4184019;28;20048;-60
2023/07/22 08:20:36;;;;;;;4.15;1.58;;;29.70;95.70;;;;;;4184237;28;20048;-59
2023/07/22 08:22:56;;;;;;;3.50;1.08;;;30.30;96.20;;;;;;4184280;28;20256;-59
2023/07/22 08:25:16;;;;;;;3.70;1.10;;;30.50;95.20;;;;;;4185113;28;20293;-59
2023/07/22 08:27:36;;;;;;;4.78;1.25;;;31.00;94.70;;;;;;4182419;28;20044;-59
2023/07/22 08:29:56;;;;;;;3.80;0.80;;;31.40;94.70;;;;;;4183354;28;20055;-59
2023/07/22 08:32:16;;;;;;;2.42;0.80;;;30.40;94.60;;;;;;4181982;28;20079;-59
2023/07/22 08:34:37;;;;;;;1.30;0.88;;;30.00;94.50;;;;;;4183772;28;20098;-60
2023/07/22 08:36:57;;;;;;;3.75;0.80;;;30.00;95.20;;;;;;4182778;28;20075;-59
2023/07/22 08:39:17;;;;;;;5.57;1.20;;;30.50;94.80;;;;;;4181766;28;20055;-59
2023/07/22 08:41:38;;;;;;;4.22;0.80;;;30.30;95.50;;;;;;4182786;28;20052;-59
2023/07/22 08:44:00;;;;;;;4.75;0.98;;;30.60;92.70;;;;;;4183106;28;20115;-59
2023/07/22 08:46:27;;;;;;;3.63;0.85;;;30.50;93.50;;;;;;4182805;28;20052;-60
2023/07/22 08:48:49;;;;;;;2.50;0.82;;;30.70;94.10;;;;;;4183599;28;20044;-60
2023/07/22 08:51:19;;;;;;;1.80;0.88;;;31.10;94.40;;;;;;4184216;28;20448;-60
2023/07/22 08:53:39;;;;;;;4.07;1.20;;;30.90;91.70;;;;;;4183696;28;20086;-59
2023/07/22 08:56:00;;;;;;;6.20;0.93;;;30.70;92.60;;;;;;4183629;28;20048;-60
2023/07/22 08:58:20;;;;;;;1.15;0.90;;;30.50;94.50;;;;;;4182458;28;20055;-59
2023/07/22 09:00:40;;;;;;;1.00;0.80;;;31.00;94.20;;;;;;4181441;28;20394;-59
2023/07/22 09:03:01;;;;;;;1.65;1.10;;;31.20;90.30;;;;;;4181051;28;20111;-59
2023/07/22 09:05:21;;;;;;;2.53;0.98;;;31.00;90.90;;;;;;4178260;28;20052;-59
2023/07/22 09:07:46;;;;;;;2.28;0.98;;;30.90;91.60;;;;;;4179918;28;20044;-59
2023/07/22 09:10:09;;;;;;;2.90;1.00;;;30.50;93.70;;;;;;4182013;28;20045;-59
2023/07/22 09:12:29;;;;;;;1.40;1.10;;;30.90;93.20;;;;;;4183154;28;20059;-59
2023/07/22 09:14:50;;;;;;;2.80;1.30;;;30.70;91.90;;;;;;4182846;28;20064;-60
2023/07/22 09:17:10;;;;;;;4.88;2.22;;;30.80;91.80;;;;;;4183744;28;20087;-59
2023/07/22 09:19:31;;;;;;;2.83;0.88;;;31.10;91.40;;;;;;4182992;28;20068;-59
2023/07/22 09:21:51;;;;;;;3.05;1.02;;;31.70;91.00;;;;;;4184725;28;20299;-59
2023/07/22 09:24:26;;;;;;;2.20;0.90;;;31.70;90.50;;;;;;4184843;28;20267;-59
2023/07/22 09:26:46;;;;;;;4.13;1.00;;;31.70;90.70;;;;;;4183990;28;20083;-59
2023/07/22 09:29:06;;;;;;;1.63;0.80;;;31.50;90.40;;;;;;4184785;28;20095;-59
2023/07/22 09:31:30;;;;;;;5.10;0.93;;;31.70;90.90;;;;;;4185767;28;20035;-59
2023/07/22 09:33:51;;;;;;;4.22;0.80;;;31.60;89.70;;;;;;4186022;28;20304;-59
2023/07/22 09:36:12;;;;;;;1.60;0.70;;;31.40;92.00;;;;;;4180870;28;20237;-59
2023/07/22 09:38:32;;;;;;;0.70;0.70;;;31.00;91.60;;;;;;4180987;28;20318;-59
2023/07/22 09:40:53;;;;;;;2.13;0.80;;;30.60;90.90;;;;;;4181123;28;20326;-59
2023/07/22 09:43:13;;;;;;;1.25;0.80;;;30.60;91.60;;;;;;4180894;28;20051;-59
2023/07/22 09:45:35;;;;;;;0.98;0.80;;;30.80;91.30;;;;;;4179588;28;20044;-59
2023/07/22 09:47:58;;;;;;;1.95;0.88;;;30.70;91.60;;;;;;4180999;28;20112;-59
2023/07/22 09:50:24;;;;;;;3.80;1.05;;;31.20;92.00;;;;;;4184587;28;20036;-59
2023/07/22 09:52:55;;;;;;;1.85;0.80;;;31.20;92.00;;;;;;4185952;28;20048;-59
2023/07/22 09:55:18;;;;;;;;;;;31.60;90.90;;;;;;4186160;28;20156;-59
2023/07/22 09:57:43;;;;;;;4.43;1.15;;;31.30;90.40;;;;;;4186058;28;19923;-59
2023/07/22 10:00:04;;;;;;;1.98;0.80;;;31.60;90.40;;;;;;4186024;28;20328;-59
2023/07/22 10:02:24;;;;;;;1.67;0.70;;;31.60;91.00;;;;;;4180517;28;20063;-59
2023/07/22 10:04:46;;;;;;;3.55;1.17;;;31.60;90.50;;;;;;4181762;28;20066;-59
2023/07/22 10:07:08;;;;;;;3.38;1.10;;;31.10;91.30;;;;;;4183628;28;20056;-59
2023/07/22 10:09:28;;;;;;;;;;;31.30;90.50;;;;;;4182330;28;20056;-59
2023/07/22 10:11:49;;;;;;;2.10;0.85;;;31.40;89.10;;;;;;4182353;28;19975;-59
2023/07/22 10:14:14;;;;;;;3.50;0.70;;;31.50;89.40;;;;;;4186105;28;20330;-59
2023/07/22 10:16:35;;;;;;;1.45;0.95;;;31.70;89.50;;;;;;4185454;28;20224;-60
2023/07/22 10:18:57;;;;;;;1.70;0.70;;;31.90;90.50;;;;;;4185947;28;20087;-59
2023/07/22 10:21:18;;;;;;;5.07;0.80;;;32.00;89.10;;;;;;4184958;28;20076;-59
2023/07/22 10:23:39;;;;;;;1.20;0.70;;;31.70;88.20;;;;;;4185352;28;20083;-59
2023/07/22 10:25:59;;;;;;;2.33;0.77;;;31.80;88.90;;;;;;4187187;28;20103;-59
2023/07/22 10:28:21;;;;;;;1.58;0.90;;;32.40;85.60;;;;;;4186661;28;20105;-59
2023/07/22 10:30:42;;;;;;;1.40;0.73;;;32.60;87.30;;;;;;4186260;28;20043;-58
2023/07/22 10:33:03;;;;;;;1.80;0.80;;;32.90;87.40;;;;;;4187410;28;20228;-59
2023/07/22 10:35:41;;;;;;;2.90;0.80;;;32.60;85.70;;;;;;4187612;28;20075;-59
2023/07/22 10:38:13;;;;;;;2.92;1.00;;;33.00;90.10;;;;;;4187539;28;20044;-59
2023/07/22 10:40:46;;;;;;;1.48;0.82;;;33.50;87.70;;;;;;4182163;28;20096;-59
2023/07/22 10:43:07;;;;;;;0.70;0.65;;;32.10;85.60;;;;;;4182676;28;20049;-60
2023/07/22 10:45:29;;;;;;;0.80;0.80;;;32.40;86.10;;;;;;4181440;28;20045;-60
2023/07/22 10:48:01;;;;;;;1.58;0.80;;;33.00;86.50;;;;;;4183916;28;20048;-60
2023/07/22 10:50:21;;;;;;;0.95;0.93;;;33.20;84.10;;;;;;4183195;28;20133;-59
2023/07/22 10:52:45;;;;;;;2.47;0.85;;;33.20;82.80;;;;;;4183337;28;20064;-60
2023/07/22 10:55:14;;;;;;;3.03;1.00;;;33.40;81.70;;;;;;4186477;28;20048;-60
2023/07/22 10:57:48;;;;;;;2.60;0.75;;;33.90;82.50;;;;;;4183628;28;20060;-59
2023/07/22 11:00:20;;;;;;;0.90;0.63;;;34.40;82.00;;;;;;4186963;28;20067;-60
2023/07/22 11:02:41;;;;;;;2.65;0.70;;;34.70;83.50;;;;;;4187417;28;20082;-59
2023/07/22 11:05:05;;;;;;;0.75;0.70;;;34.40;78.90;;;;;;4183355;28;20056;-59
2023/07/22 11:07:47;;;;;;;3.90;0.68;;;34.30;77.80;;;;;;4183836;28;20275;-59
2023/07/22 11:10:19;;;;;;;2.63;0.90;;;34.30;76.40;;;;;;4182505;28;20064;-59
2023/07/22 11:12:40;;;;;;;5.68;0.80;;;34.20;78.80;;;;;;4182786;28;20048;-59
2023/07/22 11:15:05;;;;;;;2.88;0.82;;;34.30;76.70;;;;;;4181411;28;20052;-60
2023/07/22 11:17:30;;;;;;;2.35;0.70;;;34.20;76.80;;;;;;4181330;28;20048;-59
2023/07/22 11:19:50;;;;;;;1.35;0.70;;;33.90;76.10;;;;;;4183529;28;20068;-59
2023/07/22 11:22:11;;;;;;;0.80;0.80;;;33.70;77.50;;;;;;4185272;28;20044;-59
2023/07/22 11:24:37;;;;;;;3.03;0.90;;;33.40;75.10;;;;;;4184460;28;20079;-59
2023/07/22 11:26:57;;;;;;;1.65;0.90;;;34.00;78.20;;;;;;4185361;28;20120;-60
2023/07/22 11:29:17;;;;;;;1.48;0.80;;;34.30;77.10;;;;;;4185112;28;20391;-59
2023/07/22 11:31:42;;;;;;;1.83;1.13;;;34.10;76.20;;;;;;4187480;28;20060;-59
2023/07/22 11:34:06;;;;;;;0.80;0.70;;;34.00;76.20;;;;;;4183363;28;20358;-60
2023/07/22 11:36:26;;;;;;;2.53;1.00;;;33.60;75.50;;;;;;4185861;28;20232;-60
2023/07/22 11:38:47;;;;;;;0.80;0.77;;;34.10;77.00;;;;;;4187403;28;20072;-59
2023/07/22 11:41:09;;;;;;;0.82;0.70;;;34.10;79.00;;;;;;4186791;28;20040;-59
2023/07/22 11:43:29;;;;;;;1.88;0.70;;;34.10;75.20;;;;;;4184941;28;20051;-59
2023/07/22 11:45:49;;;;;;;1.50;0.80;;;34.00;73.70;;;;;;4183450;28;20047;-60
2023/07/22 11:48:11;;;;;;;1.05;0.70;;;34.30;73.20;;;;;;4180774;28;20125;-60
2023/07/22 11:50:34;;;;;;;1.17;0.70;;;33.80;74.00;;;;;;4181620;28;20079;-60
2023/07/22 11:52:58;;;;;;;1.00;0.77;;;33.50;73.80;;;;;;4182114;28;20048;-60
2023/07/22 11:55:24;;;;;;;4.10;0.93;;;33.00;74.80;;;;;;4189356;28;20048;-59
2023/07/22 11:57:56;;;;;;;2.33;0.70;;;32.60;75.50;;;;;;4175008;28;20056;-59
2023/07/22 12:00:16;;;;;;;0.95;0.80;;;32.60;76.00;;;;;;4174910;28;20060;-59
2023/07/22 12:02:36;;;;;;;1.15;0.70;;;32.40;75.30;;;;;;4184593;28;20056;-59
2023/07/22 12:05:02;;;;;;;0.70;0.70;;;32.80;77.80;;;;;;4188760;28;20060;-59
2023/07/22 12:07:24;;;;;;;0.75;0.75;;;33.40;75.60;;;;;;4187257;28;20064;-59
2023/07/22 12:09:51;;;;;;;0.63;0.63;;;33.60;75.00;;;;;;4183463;28;20366;-59
2023/07/22 12:12:11;;;;;;;1.10;1.00;;;33.50;74.60;;;;;;4181972;28;20052;-59
2023/07/22 12:14:35;;;;;;;0.93;0.70;;;33.40;72.80;;;;;;4183038;28;20071;-60
2023/07/22 12:16:57;;;;;;;2.03;0.70;;;32.90;73.10;;;;;;4183207;28;20083;-60